sensor_id;sensor_type;location;lat;lon;timestamp;temperature;humidity
36372;DHT22;22398;51.346;12.372;2023-05-07T00:04:32;10.20;99.90
36372;DHT22;22398;51.346;12.372;2023-05-07T00:09:39;10.10;99.90
36372;DHT22;22398;51.346;12.372;2023-05-07T00:14:43;10.20;99.90
36372;DHT22;22398;51.346;12.372;2023-05-07T00:19:49;10.20;99.90
36372;DHT22;22398;51.346;12.372;2023-05-07T00:24:52;10.10;99.90
36372;DHT22;22398;51.346;12.372;2023-05-07T00:29:56;10.10;99.90
36372;DHT22;22398;51.346;12.372;2023-05-07T00:35:01;10.10;99.90
36372;DHT22;22398;51.346;12.372;2023-05-07T00:40:05;10.10;99.90
36372;DHT22;22398;51.346;12.372;2023-05-07T00:45:11;10.10;99.90
36372;DHT22;22398;51.346;12.372;2023-05-07T00:50:15;10.10;99.90
36372;DHT22;22398;51.346;12.372;2023-05-07T00:55:22;10.10;99.90
36372;DHT22;22398;51.346;12.372;2023-05-07T01:00:26;10.10;99.90
36372;DHT22;22398;51.346;12.372;2023-05-07T01:05:31;10.10;99.90
36372;DHT22;22398;51.346;12.372;2023-05-07T01:10:36;10.10;99.90
36372;DHT22;22398;51.346;12.372;2023-05-07T01:15:39;10.10;99.90
36372;DHT22;22398;51.346;12.372;2023-05-07T01:20:45;10.10;99.90
36372;DHT22;22398;51.346;12.372;2023-05-07T01:25:53;10.00;99.90
36372;DHT22;22398;51.346;12.372;2023-05-07T01:31:03;10.00;99.90
36372;DHT22;22398;51.346;12.372;2023-05-07T01:36:09;10.00;99.90
36372;DHT22;22398;51.346;12.372;2023-05-07T01:41:16;10.00;99.90
36372;DHT22;22398;51.346;12.372;2023-05-07T01:46:20;10.00;99.90
36372;DHT22;22398;51.346;12.372;2023-05-07T01:51:23;10.00;99.90
36372;DHT22;22398;51.346;12.372;2023-05-07T01:56:28;10.00;99.90
36372;DHT22;22398;51.346;12.372;2023-05-07T02:01:32;9.90;99.90
36372;DHT22;22398;51.346;12.372;2023-05-07T02:06:36;10.00;99.90
36372;DHT22;22398;51.346;12.372;2023-05-07T02:11:43;10.00;99.90
36372;DHT22;22398;51.346;12.372;2023-05-07T02:16:47;10.10;99.90
36372;DHT22;22398;51.346;12.372;2023-05-07T02:21:51;10.00;99.90
36372;DHT22;22398;51.346;12.372;2023-05-07T02:26:57;9.90;99.90
36372;DHT22;22398;51.346;12.372;2023-05-07T02:32:00;9.90;99.90
36372;DHT22;22398;51.346;12.372;2023-05-07T02:37:04;9.90;99.90
36372;DHT22;22398;51.346;12.372;2023-05-07T02:42:09;9.80;99.90
36372;DHT22;22398;51.346;12.372;2023-05-07T02:47:14;9.80;99.90
36372;DHT22;22398;51.346;12.372;2023-05-07T02:52:19;9.80;99.90
36372;DHT22;22398;51.346;12.372;2023-05-07T02:57:25;9.90;99.90
36372;DHT22;22398;51.346;12.372;2023-05-07T03:02:29;9.90;99.90
36372;DHT22;22398;51.346;12.372;2023-05-07T03:07:33;9.90;99.90
36372;DHT22;22398;51.346;12.372;2023-05-07T03:12:38;9.90;99.90
36372;DHT22;22398;51.346;12.372;2023-05-07T03:17:43;9.90;99.90
36372;DHT22;22398;51.346;12.372;2023-05-07T03:22:46;9.90;99.90
36372;DHT22;22398;51.346;12.372;2023-05-07T03:27:51;9.90;99.90
36372;DHT22;22398;51.346;12.372;2023-05-07T03:32:59;9.90;99.90
36372;DHT22;22398;51.346;12.372;2023-05-07T03:38:03;9.90;99.90
36372;DHT22;22398;51.346;12.372;2023-05-07T03:43:11;9.90;99.90
36372;DHT22;22398;51.346;12.372;2023-05-07T03:48:19;9.90;99.90
36372;DHT22;22398;51.346;12.372;2023-05-07T03:53:25;10.00;99.90
36372;DHT22;22398;51.346;12.372;2023-05-07T03:58:30;10.00;99.90
36372;DHT22;22398;51.346;12.372;2023-05-07T04:03:39;10.10;99.90
36372;DHT22;22398;51.346;12.372;2023-05-07T04:08:43;10.10;99.90
36372;DHT22;22398;51.346;12.372;2023-05-07T04:13:49;10.20;99.90
36372;DHT22;22398;51.346;12.372;2023-05-07T04:18:55;10.20;99.90
36372;DHT22;22398;51.346;12.372;2023-05-07T04:23:59;10.20;99.90
36372;DHT22;22398;51.346;12.372;2023-05-07T04:29:04;10.10;99.90
36372;DHT22;22398;51.346;12.372;2023-05-07T04:34:08;10.20;99.90
36372;DHT22;22398;51.346;12.372;2023-05-07T04:39:13;10.20;99.90
36372;DHT22;22398;51.346;12.372;2023-05-07T04:44:21;10.30;99.90
36372;DHT22;22398;51.346;12.372;2023-05-07T04:49:25;10.40;99.90
36372;DHT22;22398;51.346;12.372;2023-05-07T04:54:30;10.50;99.90
36372;DHT22;22398;51.346;12.372;2023-05-07T04:59:35;10.50;99.90
36372;DHT22;22398;51.346;12.372;2023-05-07T05:04:39;10.50;99.90
36372;DHT22;22398;51.346;12.372;2023-05-07T05:09:43;10.40;99.90
36372;DHT22;22398;51.346;12.372;2023-05-07T05:14:49;10.50;99.90
36372;DHT22;22398;51.346;12.372;2023-05-07T05:19:53;10.50;99.90
36372;DHT22;22398;51.346;12.372;2023-05-07T05:24:58;10.50;99.90
36372;DHT22;22398;51.346;12.372;2023-05-07T05:30:05;10.40;99.90
36372;DHT22;22398;51.346;12.372;2023-05-07T05:35:10;10.40;99.90
36372;DHT22;22398;51.346;12.372;2023-05-07T05:40:15;10.40;99.90
36372;DHT22;22398;51.346;12.372;2023-05-07T05:45:21;10.40;99.90
36372;DHT22;22398;51.346;12.372;2023-05-07T05:50:25;10.50;99.90
36372;DHT22;22398;51.346;12.372;2023-05-07T05:55:30;10.50;99.90
36372;DHT22;22398;51.346;12.372;2023-05-07T06:00:36;10.60;99.90
36372;DHT22;22398;51.346;12.372;2023-05-07T06:05:41;10.90;99.90
36372;DHT22;22398;51.346;12.372;2023-05-07T06:10:45;10.90;99.90
36372;DHT22;22398;51.346;12.372;2023-05-07T06:15:51;10.90;99.90
36372;DHT22;22398;51.346;12.372;2023-05-07T06:20:55;11.00;99.90
36372;DHT22;22398;51.346;12.372;2023-05-07T06:26:03;11.10;99.90
36372;DHT22;22398;51.346;12.372;2023-05-07T06:31:15;11.20;99.90
36372;DHT22;22398;51.346;12.372;2023-05-07T06:36:25;11.40;99.90
36372;DHT22;22398;51.346;12.372;2023-05-07T06:41:32;11.60;99.90
36372;DHT22;22398;51.346;12.372;2023-05-07T06:46:43;11.60;99.90
36372;DHT22;22398;51.346;12.372;2023-05-07T06:51:47;11.80;99.90
36372;DHT22;22398;51.346;12.372;2023-05-07T06:56:52;11.90;99.90
36372;DHT22;22398;51.346;12.372;2023-05-07T07:02:00;11.90;99.90
36372;DHT22;22398;51.346;12.372;2023-05-07T07:07:04;12.00;99.90
36372;DHT22;22398;51.346;12.372;2023-05-07T07:12:08;11.90;99.90
36372;DHT22;22398;51.346;12.372;2023-05-07T07:17:15;11.90;99.90
36372;DHT22;22398;51.346;12.372;2023-05-07T07:22:19;11.90;99.90
36372;DHT22;22398;51.346;12.372;2023-05-07T07:27:23;11.90;99.90
36372;DHT22;22398;51.346;12.372;2023-05-07T07:32:28;12.10;99.90
36372;DHT22;22398;51.346;12.372;2023-05-07T07:37:32;12.50;99.90
36372;DHT22;22398;51.346;12.372;2023-05-07T07:42:35;12.80;99.70
36372;DHT22;22398;51.346;12.372;2023-05-07T07:47:41;12.90;99.00
36372;DHT22;22398;51.346;12.372;2023-05-07T07:52:44;12.80;98.40
36372;DHT22;22398;51.346;12.372;2023-05-07T07:57:50;12.90;98.00
36372;DHT22;22398;51.346;12.372;2023-05-07T08:02:56;13.10;97.50
36372;DHT22;22398;51.346;12.372;2023-05-07T08:08:05;12.90;96.70
36372;DHT22;22398;51.346;12.372;2023-05-07T08:13:11;12.90;96.50
36372;DHT22;22398;51.346;12.372;2023-05-07T08:18:17;13.00;96.00
36372;DHT22;22398;51.346;12.372;2023-05-07T08:23:22;12.70;95.50
36372;DHT22;22398;51.346;12.372;2023-05-07T08:28:26;12.70;95.80
36372;DHT22;22398;51.346;12.372;2023-05-07T08:33:31;12.90;95.30
36372;DHT22;22398;51.346;12.372;2023-05-07T08:38:34;13.00;95.00
36372;DHT22;22398;51.346;12.372;2023-05-07T08:43:38;13.00;94.50
36372;DHT22;22398;51.346;12.372;2023-05-07T08:48:48;12.90;94.20
36372;DHT22;22398;51.346;12.372;2023-05-07T08:53:51;12.90;94.10
36372;DHT22;22398;51.346;12.372;2023-05-07T08:59:03;12.90;93.80
36372;DHT22;22398;51.346;12.372;2023-05-07T09:04:08;12.80;93.70
36372;DHT22;22398;51.346;12.372;2023-05-07T09:09:14;12.80;93.60
36372;DHT22;22398;51.346;12.372;2023-05-07T09:14:21;12.80;93.50
36372;DHT22;22398;51.346;12.372;2023-05-07T09:19:27;12.90;93.30
36372;DHT22;22398;51.346;12.372;2023-05-07T09:24:35;13.00;93.20
36372;DHT22;22398;51.346;12.372;2023-05-07T09:29:44;13.10;92.90
36372;DHT22;22398;51.346;12.372;2023-05-07T09:34:51;13.10;92.60
36372;DHT22;22398;51.346;12.372;2023-05-07T09:39:58;13.20;92.50
36372;DHT22;22398;51.346;12.372;2023-05-07T09:45:06;13.00;92.20
36372;DHT22;22398;51.346;12.372;2023-05-07T09:50:15;13.10;92.30
36372;DHT22;22398;51.346;12.372;2023-05-07T09:55:20;13.20;92.10
36372;DHT22;22398;51.346;12.372;2023-05-07T10:00:25;13.10;92.00
36372;DHT22;22398;51.346;12.372;2023-05-07T10:05:41;13.20;92.00
36372;DHT22;22398;51.346;12.372;2023-05-07T10:10:49;13.40;91.90
36372;DHT22;22398;51.346;12.372;2023-05-07T10:15:57;13.50;91.80
36372;DHT22;22398;51.346;12.372;2023-05-07T10:21:11;14.00;91.60
36372;DHT22;22398;51.346;12.372;2023-05-07T10:26:15;14.10;91.10
36372;DHT22;22398;51.346;12.372;2023-05-07T10:31:37;14.40;90.70
36372;DHT22;22398;51.346;12.372;2023-05-07T10:36:44;14.50;90.30
36372;DHT22;22398;51.346;12.372;2023-05-07T10:41:49;14.30;89.30
36372;DHT22;22398;51.346;12.372;2023-05-07T10:47:04;14.60;89.30
36372;DHT22;22398;51.346;12.372;2023-05-07T10:52:19;14.70;87.80
36372;DHT22;22398;51.346;12.372;2023-05-07T10:57:35;14.50;87.30
36372;DHT22;22398;51.346;12.372;2023-05-07T11:03:04;14.30;87.00
36372;DHT22;22398;51.346;12.372;2023-05-07T11:08:17;14.10;87.60
36372;DHT22;22398;51.346;12.372;2023-05-07T11:13:44;14.50;87.80
36372;DHT22;22398;51.346;12.372;2023-05-07T11:19:04;14.60;86.60
36372;DHT22;22398;51.346;12.372;2023-05-07T11:24:16;14.50;86.90
36372;DHT22;22398;51.346;12.372;2023-05-07T11:29:26;14.70;87.50
36372;DHT22;22398;51.346;12.372;2023-05-07T11:34:37;14.90;86.10
36372;DHT22;22398;51.346;12.372;2023-05-07T11:39:43;14.90;85.50
36372;DHT22;22398;51.346;12.372;2023-05-07T11:44:47;15.10;85.40
36372;DHT22;22398;51.346;12.372;2023-05-07T11:49:53;15.40;84.50
36372;DHT22;22398;51.346;12.372;2023-05-07T11:54:59;15.50;82.70
36372;DHT22;22398;51.346;12.372;2023-05-07T12:00:04;15.10;82.70
36372;DHT22;22398;51.346;12.372;2023-05-07T12:05:14;15.00;82.50
36372;DHT22;22398;51.346;12.372;2023-05-07T12:10:20;15.20;82.80
36372;DHT22;22398;51.346;12.372;2023-05-07T12:15:23;15.60;82.10
36372;DHT22;22398;51.346;12.372;2023-05-07T12:20:27;15.50;81.00
36372;DHT22;22398;51.346;12.372;2023-05-07T12:25:34;15.80;81.00
36372;DHT22;22398;51.346;12.372;2023-05-07T12:30:38;16.20;79.60
36372;DHT22;22398;51.346;12.372;2023-05-07T12:35:42;16.80;78.30
36372;DHT22;22398;51.346;12.372;2023-05-07T12:40:49;16.40;76.70
36372;DHT22;22398;51.346;12.372;2023-05-07T12:45:55;16.50;76.40
36372;DHT22;22398;51.346;12.372;2023-05-07T12:51:00;16.30;76.90
36372;DHT22;22398;51.346;12.372;2023-05-07T12:56:06;16.50;76.20
36372;DHT22;22398;51.346;12.372;2023-05-07T13:01:10;16.90;75.90
36372;DHT22;22398;51.346;12.372;2023-05-07T13:06:17;17.20;74.50
36372;DHT22;22398;51.346;12.372;2023-05-07T13:11:22;17.40;73.70
36372;DHT22;22398;51.346;12.372;2023-05-07T13:16:26;17.30;72.60
36372;DHT22;22398;51.346;12.372;2023-05-07T13:21:30;17.10;71.90
36372;DHT22;22398;51.346;12.372;2023-05-07T13:26:35;17.20;72.00
36372;DHT22;22398;51.346;12.372;2023-05-07T13:31:38;17.40;71.70
36372;DHT22;22398;51.346;12.372;2023-05-07T13:36:45;17.40;71.20
36372;DHT22;22398;51.346;12.372;2023-05-07T13:41:50;17.40;70.70
36372;DHT22;22398;51.346;12.372;2023-05-07T13:46:54;17.30;70.60
36372;DHT22;22398;51.346;12.372;2023-05-07T13:51:57;16.70;70.60
36372;DHT22;22398;51.346;12.372;2023-05-07T13:57:02;16.60;71.30
36372;DHT22;22398;51.346;12.372;2023-05-07T14:02:06;16.80;71.40
36372;DHT22;22398;51.346;12.372;2023-05-07T14:07:11;16.60;70.90
36372;DHT22;22398;51.346;12.372;2023-05-07T14:12:16;16.70;70.80
36372;DHT22;22398;51.346;12.372;2023-05-07T14:17:19;16.90;70.90
36372;DHT22;22398;51.346;12.372;2023-05-07T14:22:25;17.10;70.40
36372;DHT22;22398;51.346;12.372;2023-05-07T14:27:30;17.00;70.40
36372;DHT22;22398;51.346;12.372;2023-05-07T14:32:34;16.80;70.30
36372;DHT22;22398;51.346;12.372;2023-05-07T14:37:37;16.70;70.40
36372;DHT22;22398;51.346;12.372;2023-05-07T14:42:42;16.70;70.20
36372;DHT22;22398;51.346;12.372;2023-05-07T14:47:46;16.80;70.40
36372;DHT22;22398;51.346;12.372;2023-05-07T14:52:49;17.00;69.90
36372;DHT22;22398;51.346;12.372;2023-05-07T14:57:55;16.90;69.70
36372;DHT22;22398;51.346;12.372;2023-05-07T15:03:05;17.00;69.50
36372;DHT22;22398;51.346;12.372;2023-05-07T15:08:10;17.00;69.10
36372;DHT22;22398;51.346;12.372;2023-05-07T15:13:15;17.00;69.20
36372;DHT22;22398;51.346;12.372;2023-05-07T15:18:19;16.80;69.30
36372;DHT22;22398;51.346;12.372;2023-05-07T15:23:24;16.30;69.40
36372;DHT22;22398;51.346;12.372;2023-05-07T15:28:29;16.30;69.80
36372;DHT22;22398;51.346;12.372;2023-05-07T15:33:34;16.30;69.70
36372;DHT22;22398;51.346;12.372;2023-05-07T15:38:38;16.00;70.00
36372;DHT22;22398;51.346;12.372;2023-05-07T15:43:47;15.90;70.20
36372;DHT22;22398;51.346;12.372;2023-05-07T15:48:52;15.80;70.60
36372;DHT22;22398;51.346;12.372;2023-05-07T15:53:56;15.80;70.90
36372;DHT22;22398;51.346;12.372;2023-05-07T15:59:01;15.70;71.20
36372;DHT22;22398;51.346;12.372;2023-05-07T16:04:07;15.50;71.50
36372;DHT22;22398;51.346;12.372;2023-05-07T16:09:11;15.20;71.90
36372;DHT22;22398;51.346;12.372;2023-05-07T16:14:16;15.10;72.60
36372;DHT22;22398;51.346;12.372;2023-05-07T16:19:19;15.00;73.00
36372;DHT22;22398;51.346;12.372;2023-05-07T16:24:24;14.90;73.40
36372;DHT22;22398;51.346;12.372;2023-05-07T16:29:29;14.90;73.60
36372;DHT22;22398;51.346;12.372;2023-05-07T16:34:33;14.70;74.20
36372;DHT22;22398;51.346;12.372;2023-05-07T16:39:36;14.60;74.10
36372;DHT22;22398;51.346;12.372;2023-05-07T16:44:42;14.40;74.90
36372;DHT22;22398;51.346;12.372;2023-05-07T16:49:46;14.60;75.30
36372;DHT22;22398;51.346;12.372;2023-05-07T16:54:49;15.30;75.10
36372;DHT22;22398;51.346;12.372;2023-05-07T16:59:56;15.20;74.00
36372;DHT22;22398;51.346;12.372;2023-05-07T17:05:02;14.90;74.20
36372;DHT22;22398;51.346;12.372;2023-05-07T17:10:08;14.80;74.50
36372;DHT22;22398;51.346;12.372;2023-05-07T17:15:13;14.70;74.90
36372;DHT22;22398;51.346;12.372;2023-05-07T17:20:17;15.00;74.80
36372;DHT22;22398;51.346;12.372;2023-05-07T17:25:21;15.00;74.20
36372;DHT22;22398;51.346;12.372;2023-05-07T17:30:27;15.30;74.20
36372;DHT22;22398;51.346;12.372;2023-05-07T17:35:30;15.30;73.50
36372;DHT22;22398;51.346;12.372;2023-05-07T17:40:34;15.40;73.20
36372;DHT22;22398;51.346;12.372;2023-05-07T17:45:39;15.20;73.50
36372;DHT22;22398;51.346;12.372;2023-05-07T17:50:43;15.10;73.60
36372;DHT22;22398;51.346;12.372;2023-05-07T17:55:46;15.00;74.10
36372;DHT22;22398;51.346;12.372;2023-05-07T18:00:52;14.70;74.30
36372;DHT22;22398;51.346;12.372;2023-05-07T18:05:56;14.40;74.10
36372;DHT22;22398;51.346;12.372;2023-05-07T18:11:00;14.20;74.60
36372;DHT22;22398;51.346;12.372;2023-05-07T18:16:05;13.70;75.00
36372;DHT22;22398;51.346;12.372;2023-05-07T18:21:09;13.30;75.30
36372;DHT22;22398;51.346;12.372;2023-05-07T18:26:16;12.70;76.40
36372;DHT22;22398;51.346;12.372;2023-05-07T18:31:22;12.30;77.60
36372;DHT22;22398;51.346;12.372;2023-05-07T18:36:25;11.90;78.50
36372;DHT22;22398;51.346;12.372;2023-05-07T18:41:29;11.60;79.30
36372;DHT22;22398;51.346;12.372;2023-05-07T18:46:34;11.30;80.00
36372;DHT22;22398;51.346;12.372;2023-05-07T18:51:38;11.00;80.80
36372;DHT22;22398;51.346;12.372;2023-05-07T18:56:41;10.80;81.70
36372;DHT22;22398;51.346;12.372;2023-05-07T19:01:46;10.70;82.60
36372;DHT22;22398;51.346;12.372;2023-05-07T19:06:50;10.50;83.60
36372;DHT22;22398;51.346;12.372;2023-05-07T19:11:54;10.30;84.50
36372;DHT22;22398;51.346;12.372;2023-05-07T19:16:59;10.20;85.60
36372;DHT22;22398;51.346;12.372;2023-05-07T19:22:03;10.10;86.70
36372;DHT22;22398;51.346;12.372;2023-05-07T19:27:06;9.90;87.70
36372;DHT22;22398;51.346;12.372;2023-05-07T19:32:11;9.80;88.90
36372;DHT22;22398;51.346;12.372;2023-05-07T19:37:15;9.70;89.80
36372;DHT22;22398;51.346;12.372;2023-05-07T19:42:19;9.70;90.40
36372;DHT22;22398;51.346;12.372;2023-05-07T19:47:24;9.60;90.80
36372;DHT22;22398;51.346;12.372;2023-05-07T19:52:28;9.50;91.20
36372;DHT22;22398;51.346;12.372;2023-05-07T19:57:32;9.40;91.60
36372;DHT22;22398;51.346;12.372;2023-05-07T20:02:38;9.30;91.80
36372;DHT22;22398;51.346;12.372;2023-05-07T20:07:41;9.30;92.20
36372;DHT22;22398;51.346;12.372;2023-05-07T20:12:47;9.10;92.30
36372;DHT22;22398;51.346;12.372;2023-05-07T20:17:52;9.10;92.70
36372;DHT22;22398;51.346;12.372;2023-05-07T20:22:56;9.00;93.10
36372;DHT22;22398;51.346;12.372;2023-05-07T20:28:00;9.00;93.20
36372;DHT22;22398;51.346;12.372;2023-05-07T20:33:05;8.90;93.50
36372;DHT22;22398;51.346;12.372;2023-05-07T20:38:09;8.80;93.70
36372;DHT22;22398;51.346;12.372;2023-05-07T20:43:13;8.80;93.80
36372;DHT22;22398;51.346;12.372;2023-05-07T20:48:18;8.80;94.10
36372;DHT22;22398;51.346;12.372;2023-05-07T20:53:22;8.70;94.20
36372;DHT22;22398;51.346;12.372;2023-05-07T20:58:27;8.70;94.50
36372;DHT22;22398;51.346;12.372;2023-05-07T21:03:32;8.60;94.70
36372;DHT22;22398;51.346;12.372;2023-05-07T21:08:36;8.60;94.90
36372;DHT22;22398;51.346;12.372;2023-05-07T21:13:39;8.50;95.10
36372;DHT22;22398;51.346;12.372;2023-05-07T21:18:44;8.50;95.30
36372;DHT22;22398;51.346;12.372;2023-05-07T21:23:48;8.50;95.50
36372;DHT22;22398;51.346;12.372;2023-05-07T21:28:52;8.50;95.60
36372;DHT22;22398;51.346;12.372;2023-05-07T21:33:56;8.40;95.80
36372;DHT22;22398;51.346;12.372;2023-05-07T21:39:00;8.30;95.90
36372;DHT22;22398;51.346;12.372;2023-05-07T21:44:04;8.30;96.00
36372;DHT22;22398;51.346;12.372;2023-05-07T21:49:09;8.30;96.30
36372;DHT22;22398;51.346;12.372;2023-05-07T21:54:13;8.30;96.40
36372;DHT22;22398;51.346;12.372;2023-05-07T21:59:17;8.20;96.70
36372;DHT22;22398;51.346;12.372;2023-05-07T22:04:22;8.20;96.70
36372;DHT22;22398;51.346;12.372;2023-05-07T22:09:26;8.20;96.90
36372;DHT22;22398;51.346;12.372;2023-05-07T22:14:29;8.10;97.10
36372;DHT22;22398;51.346;12.372;2023-05-07T22:19:34;8.10;97.10
36372;DHT22;22398;51.346;12.372;2023-05-07T22:24:37;8.00;97.30
36372;DHT22;22398;51.346;12.372;2023-05-07T22:29:40;8.00;97.50
36372;DHT22;22398;51.346;12.372;2023-05-07T22:34:45;7.90;97.60
36372;DHT22;22398;51.346;12.372;2023-05-07T22:39:48;7.90;97.80
36372;DHT22;22398;51.346;12.372;2023-05-07T22:44:51;7.80;97.90
36372;DHT22;22398;51.346;12.372;2023-05-07T22:49:56;7.70;98.10
36372;DHT22;22398;51.346;12.372;2023-05-07T22:55:00;7.70;98.30
36372;DHT22;22398;51.346;12.372;2023-05-07T23:00:05;7.70;98.40
36372;DHT22;22398;51.346;12.372;2023-05-07T23:05:10;7.60;98.60
36372;DHT22;22398;51.346;12.372;2023-05-07T23:10:14;7.70;98.80
36372;DHT22;22398;51.346;12.372;2023-05-07T23:15:18;7.60;98.80
36372;DHT22;22398;51.346;12.372;2023-05-07T23:20:23;7.60;98.90
36372;DHT22;22398;51.346;12.372;2023-05-07T23:25:27;7.50;99.00
36372;DHT22;22398;51.346;12.372;2023-05-07T23:30:31;7.50;99.10
36372;DHT22;22398;51.346;12.372;2023-05-07T23:35:37;7.50;99.20
36372;DHT22;22398;51.346;12.372;2023-05-07T23:40:40;7.50;99.30
36372;DHT22;22398;51.346;12.372;2023-05-07T23:45:43;7.40;99.30
36372;DHT22;22398;51.346;12.372;2023-05-07T23:50:48;7.40;99.40
36372;DHT22;22398;51.346;12.372;2023-05-07T23:55:51;7.30;99.50
